Time;durP1;ratioP1;P1;durP2;ratioP2;P2;SDS_P1;SDS_P2;PMS_P1;PMS_P2;Temp;Humidity;BMP_temperature;BMP_pressure;BME280_temperature;BME280_humidity;BME280_pressure;Samples;Min_cycle;Max_cycle;Signal;HPM_P1;HPM_P2
2023/05/02 00:00:32;;;;;;;30.23;18.33;;;;;;;9.73;100.00;101848.22;4974506;28;20031;-88
2023/05/02 00:02:57;;;;;;;30.13;18.38;;;;;;;10.64;100.00;101995.72;4974508;28;20052;-90
2023/05/02 00:05:26;;;;;;;31.80;17.98;;;;;;;10.62;100.00;101998.38;4956779;28;20094;-89
2023/05/02 00:07:51;;;;;;;30.27;18.23;;;;;;;9.99;100.00;101904.72;4973983;28;20106;-89
2023/05/02 00:10:17;;;;;;;30.33;18.85;;;;;;;9.56;100.00;101853.28;4956662;28;20109;-90
2023/05/02 00:12:42;;;;;;;29.40;18.27;;;;;;;10.32;100.00;101982.47;4974011;28;20038;-90
2023/05/02 00:15:09;;;;;;;28.38;18.77;;;;;;;9.40;100.00;101846.19;4974051;28;20034;-89
2023/05/02 00:17:40;;;;;;;32.58;19.80;;;;;;;10.03;100.00;101942.41;4973885;28;20102;-89
2023/05/02 00:20:08;;;;;;;28.73;18.30;;;;;;;10.27;100.00;101994.72;4973642;28;20493;-90
2023/05/02 00:22:34;;;;;;;29.15;18.17;;;;;;;10.21;100.00;101999.28;4973748;28;20047;-90
2023/05/02 00:25:00;;;;;;;32.35;19.52;;;;;;;9.88;100.00;101966.25;4973835;28;20042;-89
2023/05/02 00:27:25;;;;;;;31.38;18.58;;;;;;;9.85;100.00;101965.56;4956566;28;20027;-89
2023/05/02 00:29:52;;;;;;;31.90;17.92;;;;;;;9.99;100.00;101989.88;4973862;28;20101;-81
2023/05/02 00:32:20;;;;;;;27.85;17.83;;;;;;;10.16;100.00;102022.72;4973613;28;20058;-87
2023/05/02 00:34:46;;;;;;;26.02;16.70;;;;;;;10.14;100.00;102021.94;4973520;28;20031;-83
2023/05/02 00:37:12;;;;;;;25.17;15.95;;;;;;;9.76;100.00;101962.47;4973647;28;20030;-83
2023/05/02 00:39:37;;;;;;;25.83;15.98;;;;;;;10.15;100.00;102023.63;4973487;28;20027;-83
2023/05/02 00:42:03;;;;;;;23.55;14.73;;;;;;;10.10;100.00;102027.28;4973588;28;20037;-82
2023/05/02 00:44:28;;;;;;;23.65;14.05;;;;;;;10.03;100.00;102027.56;4973860;28;20026;-83
2023/05/02 00:46:55;;;;;;;21.65;13.65;;;;;;;9.81;100.00;102003.53;4973617;28;20034;-83
2023/05/02 00:49:20;;;;;;;23.35;14.52;;;;;;;9.88;100.00;102028.19;4973666;28;20105;-82
2023/05/02 00:51:46;;;;;;;22.30;14.32;;;;;;;9.47;100.00;101965.38;4973608;28;20452;-85
2023/05/02 00:54:14;;;;;;;21.73;13.98;;;;;;;9.81;100.00;102041.38;4973293;28;20110;-82
2023/05/02 00:56:40;;;;;;;21.88;13.65;;;;;;;9.51;100.00;101986.72;4974796;28;20447;-82
2023/05/02 00:59:07;;;;;;;22.83;13.93;;;;;;;9.05;100.00;101916.38;4977378;28;20019;-83
2023/05/02 01:02:10;;;;;;;23.50;13.75;;;;;;;9.81;100.00;102028.47;4977186;28;20022;-83
2023/05/02 01:05:06;;;;;;;23.75;13.98;;;;;;;9.89;100.00;102039.34;4977473;28;20109;-83
2023/05/02 01:08:04;;;;;;;20.75;12.82;;;;;;;9.94;100.00;102040.00;4977312;28;20035;-82
2023/05/02 01:10:58;;;;;;;23.23;12.43;;;;;;;9.25;100.00;101938.78;4976893;28;20035;-83
2023/05/02 01:13:27;;;;;;;18.92;12.75;;;;;;;9.51;100.00;101981.56;4977258;28;20023;-84
2023/05/02 01:15:54;;;;;;;18.63;11.88;;;;;;;9.62;100.00;101994.84;4976937;28;20042;-82
2023/05/02 01:18:22;;;;;;;18.88;12.45;;;;;;;9.79;100.00;102025.97;4976848;28;20075;-86
2023/05/02 01:20:54;;;;;;;20.30;12.63;;;;;;;9.80;100.00;102026.81;4976947;28;20042;-83
2023/05/02 01:23:31;;;;;;;24.52;12.93;;;;;;;9.72;100.00;101997.00;4976747;28;20029;-83
2023/05/02 01:26:19;;;;;;;19.77;12.18;;;;;;;9.84;100.00;102025.81;4977015;28;20423;-82
2023/05/02 01:28:57;;;;;;;20.00;13.27;;;;;;;9.84;100.00;102021.47;4976917;28;20027;-84
2023/05/02 01:31:25;;;;;;;18.55;12.63;;;;;;;9.59;100.00;101988.09;4959155;28;20426;-82
2023/05/02 01:33:51;;;;;;;19.35;13.70;;;;;;;9.86;100.00;102029.16;4976670;28;20427;-83
2023/05/02 01:36:19;;;;;;;21.98;13.13;;;;;;;9.20;100.00;101931.22;4976707;28;20464;-83
2023/05/02 01:38:46;;;;;;;21.30;12.75;;;;;;;9.86;100.00;102040.31;4976840;28;20027;-84
2023/05/02 01:41:12;;;;;;;19.15;13.18;;;;;;;9.85;100.00;102036.06;4976764;28;20027;-83
2023/05/02 01:43:40;;;;;;;18.10;12.77;;;;;;;9.29;100.00;101946.31;4976554;28;20030;-83
2023/05/02 01:46:08;;;;;;;18.25;12.57;;;;;;;9.87;100.00;102039.41;4976522;28;20441;-83
2023/05/02 01:48:34;;;;;;;19.58;13.10;;;;;;;9.48;100.00;101979.94;4976532;28;20054;-84
2023/05/02 01:51:02;;;;;;;22.55;13.35;;;;;;;9.75;100.00;102027.84;4976620;28;20030;-89
2023/05/02 01:53:29;;;;;;;20.33;12.90;;;;;;;9.39;100.00;101978.56;4976793;28;20030;-88
2023/05/02 01:55:58;;;;;;;19.85;13.20;;;;;;;9.88;100.00;102055.72;4976315;28;20031;-83
2023/05/02 01:58:27;;;;;;;21.23;13.23;;;;;;;9.64;100.00;102018.88;4976171;28;20039;-80
2023/05/02 02:00:54;;;;;;;22.73;13.65;;;;;;;9.69;100.00;102034.97;4976287;28;20089;-82
2023/05/02 02:03:20;;;;;;;20.55;13.73;;;;;;;9.84;100.00;102065.34;4976370;28;20027;-82
2023/05/02 02:05:47;;;;;;;22.00;13.88;;;;;;;9.45;100.00;101995.56;4976275;28;20038;-83
2023/05/02 02:08:13;;;;;;;20.92;14.05;;;;;;;9.83;100.00;102065.38;4976195;28;20027;-83
2023/05/02 02:10:45;;;;;;;23.75;14.57;;;;;;;9.82;100.00;102069.69;4976045;28;20485;-84
2023/05/02 02:13:17;;;;;;;22.10;14.18;;;;;;;9.85;100.00;102069.59;4976173;28;20027;-83
2023/05/02 02:15:47;;;;;;;23.60;15.70;;;;;;;9.87;100.00;102083.25;4975731;28;20102;-83
2023/05/02 02:18:22;;;;;;;22.08;14.10;;;;;;;9.76;100.00;102063.06;4976338;28;20026;-83
2023/05/02 02:20:49;;;;;;;22.50;15.77;;;;;;;9.80;100.00;102080.97;4976011;28;20038;-83
2023/05/02 02:23:16;;;;;;;23.63;15.93;;;;;;;9.79;100.00;102087.88;4975946;28;20081;-83
2023/05/02 02:25:44;;;;;;;24.83;15.68;;;;;;;9.23;100.00;101995.53;4975220;28;20482;-83
2023/05/02 02:28:11;;;;;;;24.20;15.73;;;;;;;9.76;100.00;102085.44;4975891;28;20097;-84
2023/05/02 02:30:37;;;;;;;26.48;16.38;;;;;;;8.79;100.00;101928.50;4974900;28;20053;-85
2023/05/02 02:33:02;;;;;;;26.30;16.70;;;;;;;9.73;100.00;102085.53;4958450;28;20371;-85
2023/05/02 02:35:36;;;;;;;24.65;17.00;;;;;;;9.58;100.00;102053.47;4975765;28;20074;-88
2023/05/02 02:38:19;;;;;;;24.23;17.63;;;;;;;9.30;100.00;102012.44;4975859;28;20497;-89
2023/05/02 02:40:54;;;;;;;25.40;18.08;;;;;;;9.74;100.00;102092.41;4975415;28;20038;-84
2023/05/02 02:43:55;;;;;;;23.40;16.00;;;;;;;9.71;100.00;102093.34;4958174;28;20105;-83
2023/05/02 02:46:25;;;;;;;27.80;16.83;;;;;;;9.68;100.00;102090.06;4975431;28;20031;-83
2023/05/02 02:49:22;;;;;;;23.27;16.02;;;;;;;9.71;100.00;102095.06;4975565;28;20038;-83
2023/05/02 02:51:56;;;;;;;25.10;17.52;;;;;;;9.71;100.00;102092.50;4975330;28;20494;-83
2023/05/02 02:54:34;;;;;;;24.48;17.02;;;;;;;9.70;100.00;102083.09;4975309;28;20110;-83
2023/05/02 02:57:06;;;;;;;29.25;17.98;;;;;;;9.77;100.00;102093.09;4975158;28;20031;-88
2023/05/02 02:59:35;;;;;;;27.42;18.67;;;;;;;9.76;100.00;102095.75;4975226;28;20423;-83
2023/05/02 03:02:13;;;;;;;24.88;17.92;;;;;;;9.66;100.00;102082.38;4975234;28;20034;-88
2023/05/02 03:04:44;;;;;;;26.50;17.23;;;;;;;9.81;100.00;102104.13;4975553;28;20388;-88
2023/05/02 03:07:09;;;;;;;27.20;16.83;;;;;;;9.71;100.00;102087.34;4975225;28;20023;-89
2023/05/02 03:09:46;;;;;;;25.67;17.02;;;;;;;9.74;100.00;102092.41;4974958;28;20023;-89
2023/05/02 03:12:12;;;;;;;21.90;15.15;;;;;;;9.87;100.00;102114.22;4974967;28;20042;-87
2023/05/02 03:14:38;;;;;;;21.80;14.55;;;;;;;9.60;100.00;102074.88;4957538;28;20027;-88
2023/05/02 03:17:04;;;;;;;25.23;16.05;;;;;;;9.84;100.00;102129.00;4974667;28;20043;-83
2023/05/02 03:19:30;;;;;;;22.92;14.75;;;;;;;8.99;100.00;101989.59;4974360;28;20117;-88
2023/05/02 03:21:55;;;;;;;21.27;12.52;;;;;;;9.72;100.00;102109.66;4974802;28;20027;-89
2023/05/02 03:24:21;;;;;;;19.00;12.27;;;;;;;9.78;100.00;102130.06;4974668;28;20022;-89
2023/05/02 03:26:47;;;;;;;21.17;11.73;;;;;;;9.74;100.00;102139.66;4974512;28;20038;-90
2023/05/02 03:29:13;;;;;;;20.73;10.32;;;;;;;9.02;100.00;102032.41;4957329;28;20039;-88
2023/05/02 03:31:38;;;;;;;16.95;8.70;;;;;;;9.49;100.00;102123.44;4974737;28;20030;-83
2023/05/02 03:34:04;;;;;;;17.27;8.77;;;;;;;9.57;100.00;102147.19;4974582;28;20490;-83
2023/05/02 03:36:29;;;;;;;19.05;9.05;;;;;;;9.51;100.00;102144.84;4974472;28;20140;-83
2023/05/02 03:38:55;;;;;;;18.63;8.73;;;;;;;9.21;100.00;102100.41;4974681;28;20030;-83
2023/05/02 03:41:20;;;;;;;16.08;7.45;;;;;;;9.14;100.00;102098.97;4974456;28;20030;-82
2023/05/02 03:43:46;;;;;;;16.35;6.57;;;;;;;9.35;100.00;102134.28;4974439;28;20027;-83
2023/05/02 03:46:11;;;;;;;15.52;7.22;;;;;;;9.29;100.00;102124.19;4974476;28;20034;-83
2023/05/02 03:48:37;;;;;;;15.25;6.97;;;;;;;9.07;100.00;102097.53;4974375;28;20378;-82
2023/05/02 03:51:05;;;;;;;15.55;7.10;;;;;;;9.08;100.00;102105.19;4974307;28;20031;-85
2023/05/02 03:53:30;;;;;;;12.98;6.35;;;;;;;9.35;100.00;102160.06;4974411;28;20023;-85
2023/05/02 03:55:56;;;;;;;12.85;5.57;;;;;;;9.25;100.00;102160.44;4974060;28;20060;-85
2023/05/02 03:58:22;;;;;;;13.65;4.90;;;;;;;8.86;100.00;102105.13;4974367;28;20019;-86
2023/05/02 04:00:47;;;;;;;11.30;4.20;;;;;;;8.90;100.00;102126.47;4974369;28;20542;-90
2023/05/02 04:03:13;;;;;;;12.80;3.60;;;;;;;9.15;100.00;102170.25;4974405;28;20026;-89
2023/05/02 04:05:38;;;;;;;8.27;3.45;;;;;;;9.11;100.00;102184.13;4974554;28;20029;-89
2023/05/02 04:08:04;;;;;;;7.18;2.70;;;;;;;8.88;98.60;102156.59;4974377;28;20057;-90
2023/05/02 04:10:29;;;;;;;8.80;2.53;;;;;;;9.02;97.10;102187.00;4974413;28;20391;-89
2023/05/02 04:12:55;;;;;;;10.10;2.20;;;;;;;8.64;97.45;102147.94;4974229;28;20382;-88
2023/05/02 04:15:20;;;;;;;7.07;2.33;;;;;;;8.41;96.66;102115.25;4957483;28;20031;-89
2023/05/02 04:17:45;;;;;;;8.77;2.28;;;;;;;8.83;96.27;102191.94;4974773;28;20447;-89
2023/05/02 04:20:11;;;;;;;10.18;2.42;;;;;;;8.86;95.22;102194.44;4975095;28;20487;-89
2023/05/02 04:22:38;;;;;;;10.73;2.80;;;;;;;8.85;95.65;102203.06;4974615;28;20122;-89
2023/05/02 04:25:05;;;;;;;8.05;2.03;;;;;;;8.16;95.46;102104.03;4974567;28;20456;-88
2023/05/02 04:27:30;;;;;;;6.38;2.70;;;;;;;8.01;95.09;102093.38;4974344;28;20034;-88
2023/05/02 04:29:56;;;;;;;7.60;2.53;;;;;;;8.31;95.36;102160.19;4956442;28;20046;-89
2023/05/02 04:32:24;;;;;;;7.57;2.08;;;;;;;8.64;95.15;102220.03;4955419;28;20034;-86
2023/05/02 04:34:50;;;;;;;6.55;2.30;;;;;;;8.64;94.83;102227.78;4956584;28;20486;-89
2023/05/02 04:37:15;;;;;;;7.88;2.20;;;;;;;8.46;94.83;102197.50;4973957;28;20391;-90
2023/05/02 04:39:41;;;;;;;8.00;2.72;;;;;;;8.56;95.07;102230.63;4956606;28;20039;-89
2023/05/02 04:42:06;;;;;;;4.97;2.70;;;;;;;8.18;94.71;102166.63;4973709;28;20458;-89
2023/05/02 04:44:32;;;;;;;7.22;2.58;;;;;;;8.56;94.13;102240.06;4973502;28;20471;-89
2023/05/02 04:46:57;;;;;;;6.03;2.05;;;;;;;8.41;93.88;102207.09;4973678;28;20471;-89
2023/05/02 04:49:22;;;;;;;5.30;2.42;;;;;;;8.64;94.42;102245.78;4973871;28;20102;-89
2023/05/02 04:51:48;;;;;;;7.28;2.10;;;;;;;8.25;94.33;102168.91;4973689;28;20053;-88
2023/05/02 04:54:14;;;;;;;6.75;2.20;;;;;;;8.88;93.53;102257.91;4973713;28;20023;-89
2023/05/02 04:56:40;;;;;;;5.72;2.10;;;;;;;9.02;92.57;102266.88;4973574;28;20030;-88
2023/05/02 04:59:05;;;;;;;5.78;2.00;;;;;;;9.07;91.42;102262.44;4973677;28;20038;-90
2023/05/02 05:01:30;;;;;;;6.32;2.15;;;;;;;8.76;90.72;102211.09;4973261;28;20360;-89
2023/05/02 05:03:56;;;;;;;5.07;1.83;;;;;;;9.03;90.17;102250.53;4973446;28;20105;-89
2023/05/02 05:06:21;;;;;;;4.75;1.88;;;;;;;8.56;90.46;102175.72;4973301;28;20106;-90
2023/05/02 05:08:47;;;;;;;5.57;2.42;;;;;;;9.18;90.35;102275.78;4973585;28;20166;-88
2023/05/02 05:11:14;;;;;;;6.25;1.83;;;;;;;9.18;89.15;102271.47;4973391;28;20023;-88
2023/05/02 05:13:40;;;;;;;5.93;1.90;;;;;;;8.94;89.43;102236.22;4973218;28;20526;-87
2023/05/02 05:16:06;;;;;;;7.47;2.15;;;;;;;9.25;88.43;102274.69;4973091;28;20069;-89
2023/05/02 05:18:39;;;;;;;5.20;2.38;;;;;;;9.35;88.56;102299.28;4972891;28;20051;-89
2023/05/02 05:21:05;;;;;;;4.55;1.80;;;;;;;9.05;86.31;102246.19;4973326;28;20038;-89
2023/05/02 05:23:30;;;;;;;8.95;1.70;;;;;;;9.33;84.39;102292.47;4973443;28;20073;-90
2023/05/02 05:26:11;;;;;;;5.55;1.52;;;;;;;9.01;84.10;102245.44;4973317;28;20054;-87
2023/05/02 05:28:36;;;;;;;5.57;2.08;;;;;;;9.34;83.32;102302.75;4972940;28;20058;-91
2023/05/02 05:31:09;;;;;;;6.35;1.85;;;;;;;9.40;83.76;102312.00;4973192;28;20447;-91
2023/05/02 05:33:35;;;;;;;6.07;1.90;;;;;;;9.41;83.09;102288.72;4973348;28;20022;-88
2023/05/02 05:36:04;;;;;;;3.88;1.70;;;;;;;9.59;81.66;102314.78;4973250;28;20037;-88
2023/05/02 05:38:36;;;;;;;6.20;2.10;;;;;;;9.73;82.09;102313.41;4973160;28;20035;-91
2023/05/02 05:41:02;;;;;;;7.20;1.95;;;;;;;9.88;80.86;102317.16;4955685;28;20023;-89
2023/05/02 05:43:28;;;;;;;8.52;2.33;;;;;;;10.29;78.88;102299.31;4975031;28;20019;-90
2023/05/02 05:45:54;;;;;;;6.15;1.50;;;;;;;11.27;73.81;102223.81;4959305;28;20046;-90
2023/05/02 05:48:26;;;;;;;5.78;1.67;;;;;;;13.32;68.46;102305.66;4976941;28;20026;-90
2023/05/02 05:50:51;;;;;;;5.30;1.10;;;;;;;14.17;60.41;102278.69;4976541;28;20055;-90
2023/05/02 05:53:17;;;;;;;6.28;1.50;;;;;;;15.04;58.03;102329.22;4959255;28;20102;-90
2023/05/02 05:55:43;;;;;;;5.00;1.80;;;;;;;15.71;57.03;102280.97;4976581;28;20129;-89
2023/05/02 05:58:08;;;;;;;5.65;1.45;;;;;;;16.51;52.86;102271.56;4976115;28;20499;-85
2023/05/02 06:00:35;;;;;;;4.07;1.20;;;;;;;17.12;50.54;102309.31;4976219;28;20035;-88
2023/05/02 06:03:00;;;;;;;5.10;1.17;;;;;;;16.97;50.15;102317.31;4976482;28;20117;-88
2023/05/02 06:05:26;;;;;;;5.13;1.40;;;;;;;15.76;50.78;102205.19;4976339;28;20109;-88
2023/05/02 06:07:51;;;;;;;5.90;1.33;;;;;;;15.54;52.40;102228.25;4976145;28;20050;-90
2023/05/02 06:10:16;;;;;;;5.45;1.70;;;;;;;15.67;51.86;102274.28;4974599;28;20038;-82
2023/05/02 06:12:42;;;;;;;5.32;1.65;;;;;;;16.08;53.08;102358.63;4976490;28;20050;-81
2023/05/02 06:15:07;;;;;;;9.57;1.95;;;;;;;15.85;52.05;102293.16;4976149;28;20069;-85
2023/05/02 06:17:33;;;;;;;6.45;1.77;;;;;;;14.60;54.82;102324.78;4975816;28;20105;-86
2023/05/02 06:19:58;;;;;;;9.52;1.98;;;;;;;13.49;59.85;102354.13;4975833;28;20469;-86
2023/05/02 06:22:23;;;;;;;6.40;1.90;;;;;;;12.85;62.88;102336.53;4975700;28;20027;-86
2023/05/02 06:24:49;;;;;;;5.70;2.00;;;;;;;12.50;65.22;102375.34;4975703;28;20030;-77
2023/05/02 06:27:15;;;;;;;5.72;1.95;;;;;;;11.80;67.42;102331.03;4975859;28;20027;-80
2023/05/02 06:29:40;;;;;;;7.85;2.20;;;;;;;12.00;68.88;102380.22;4976754;28;20041;-78
2023/05/02 06:32:06;;;;;;;8.10;2.45;;;;;;;12.12;69.19;102384.00;4975681;28;20035;-80
2023/05/02 06:34:32;;;;;;;10.32;2.63;;;;;;;11.95;68.75;102375.22;4975804;28;20066;-82
2023/05/02 06:36:58;;;;;;;8.80;2.50;;;;;;;12.00;68.20;102380.22;4958202;28;20023;-82
2023/05/02 06:39:23;;;;;;;9.48;2.33;;;;;;;12.03;68.75;102404.22;4975581;28;20382;-81
2023/05/02 06:41:49;;;;;;;8.48;2.35;;;;;;;11.48;68.83;102362.53;4975575;28;20045;-84
2023/05/02 06:44:14;;;;;;;8.40;2.67;;;;;;;11.56;70.80;102410.53;4975385;28;20090;-83
2023/05/02 06:46:40;;;;;;;10.57;2.60;;;;;;;11.39;70.29;102416.41;4975203;28;20027;-82
2023/05/02 06:49:05;;;;;;;7.10;2.55;;;;;;;11.11;71.69;102388.22;4957819;28;20038;-86
2023/05/02 06:51:31;;;;;;;8.32;2.58;;;;;;;11.41;72.32;102423.22;4975557;28;20105;-85
2023/05/02 06:53:56;;;;;;;8.05;2.78;;;;;;;11.45;71.32;102432.53;4956649;28;20074;-85
2023/05/02 06:56:24;;;;;;;11.38;3.47;;;;;;;11.15;71.28;102426.84;4975320;28;20475;-84
2023/05/02 06:58:50;;;;;;;11.35;3.40;;;;;;;11.07;72.81;102426.31;4957783;28;20066;-86
2023/05/02 07:01:15;;;;;;;10.00;2.88;;;;;;;11.06;71.75;102429.78;4974856;28;20073;-84
2023/05/02 07:03:40;;;;;;;12.30;3.10;;;;;;;11.07;70.71;102426.31;4974315;28;20070;-83
2023/05/02 07:06:06;;;;;;;8.93;2.55;;;;;;;10.94;71.95;102393.25;4975232;28;20368;-83
2023/05/02 07:08:31;;;;;;;7.97;2.63;;;;;;;11.09;71.23;102410.72;4975012;28;20026;-82
2023/05/02 07:10:56;;;;;;;8.98;2.95;;;;;;;11.22;69.53;102430.03;4975031;28;20067;-84
2023/05/02 07:13:22;;;;;;;7.78;2.72;;;;;;;10.97;68.86;102396.56;4956854;28;20030;-85
2023/05/02 07:15:49;;;;;;;13.35;3.45;;;;;;;11.22;69.32;102417.13;4974927;28;20077;-85
2023/05/02 07:18:15;;;;;;;12.05;3.40;;;;;;;11.57;68.22;102457.03;4974823;28;20396;-86
2023/05/02 07:20:41;;;;;;;9.27;2.75;;;;;;;11.15;69.20;102371.72;4974851;28;20027;-85
2023/05/02 07:23:09;;;;;;;9.63;2.90;;;;;;;11.96;67.63;102457.16;4974842;28;20026;-82
2023/05/02 07:25:35;;;;;;;9.93;3.03;;;;;;;12.03;66.23;102430.09;4974747;28;20023;-83
2023/05/02 07:28:01;;;;;;;10.95;3.58;;;;;;;12.15;65.10;102427.88;4974893;28;20089;-84
2023/05/02 07:30:26;;;;;;;8.15;3.10;;;;;;;11.99;64.86;102463.94;4974509;28;20027;-84
2023/05/02 07:32:51;;;;;;;12.32;3.40;;;;;;;11.60;67.15;102474.19;4974602;28;20030;-82
2023/05/02 07:35:17;;;;;;;14.45;3.72;;;;;;;10.83;69.61;102409.19;4974489;28;20082;-85
2023/05/02 07:37:42;;;;;;;11.85;3.65;;;;;;;10.83;68.92;102478.97;4974440;28;20085;-82
2023/05/02 07:40:08;;;;;;;10.32;3.10;;;;;;;10.59;68.40;102478.94;4974864;28;20035;-83
2023/05/02 07:42:35;;;;;;;10.55;2.83;;;;;;;10.20;69.40;102442.47;4974485;28;20058;-82
2023/05/02 07:45:00;;;;;;;9.90;2.80;;;;;;;10.50;68.79;102471.53;4974266;28;20109;-82
2023/05/02 07:47:26;;;;;;;10.80;2.97;;;;;;;10.40;68.62;102428.03;4973950;28;20146;-85
2023/05/02 07:49:54;;;;;;;6.93;2.40;;;;;;;10.55;65.56;102469.66;4972696;28;20027;-78
2023/05/02 07:52:20;;;;;;;11.35;2.88;;;;;;;10.62;66.30;102485.78;4975192;28;20026;-80
2023/05/02 07:54:48;;;;;;;7.53;2.60;;;;;;;10.60;66.40;102477.22;4975180;28;20494;-82
2023/05/02 07:57:13;;;;;;;12.02;3.28;;;;;;;10.69;66.10;102492.38;4974488;28;20485;-81
2023/05/02 07:59:38;;;;;;;11.02;3.60;;;;;;;10.45;67.21;102449.38;4973582;28;20139;-77
2023/05/02 08:02:04;;;;;;;8.52;2.30;;;;;;;10.75;67.48;102475.81;4974139;28;20383;-80
2023/05/02 08:04:29;;;;;;;10.73;2.92;;;;;;;10.94;65.73;102475.97;4973623;28;20073;-80
2023/05/02 08:06:55;;;;;;;8.15;2.40;;;;;;;11.20;63.30;102506.81;4973920;28;20031;-84
2023/05/02 08:09:21;;;;;;;14.30;3.17;;;;;;;11.11;64.25;102470.97;4974335;28;20042;-83
2023/05/02 08:11:46;;;;;;;9.95;3.35;;;;;;;11.34;63.59;102478.69;4973787;28;20026;-85
2023/05/02 08:14:12;;;;;;;10.23;2.47;;;;;;;11.42;63.06;102468.88;4973703;28;20029;-86
2023/05/02 08:16:38;;;;;;;8.25;2.28;;;;;;;11.48;62.32;102470.34;4973851;28;20058;-83
2023/05/02 08:19:03;;;;;;;8.23;2.63;;;;;;;11.80;60.92;102500.16;4973496;28;20035;-83
2023/05/02 08:21:30;;;;;;;5.28;2.05;;;;;;;11.33;61.04;102411.50;4973861;28;20592;-85
2023/05/02 08:24:02;;;;;;;5.70;2.08;;;;;;;11.47;60.69;102435.03;4974041;28;20126;-84
2023/05/02 08:26:33;;;;;;;8.45;2.30;;;;;;;11.61;59.52;102418.97;4974007;28;20390;-87
2023/05/02 08:28:58;;;;;;;;;;;;;;;12.34;60.67;102525.44;4956471;28;20031;-85
2023/05/02 08:31:24;;;;;;;9.57;2.75;;;;;;;12.29;59.55;102490.25;4973426;28;19921;-84
2023/05/02 08:33:49;;;;;;;9.25;2.60;;;;;;;12.45;59.60;102503.41;4973845;28;20034;-84
2023/05/02 08:36:17;;;;;;;10.32;2.45;;;;;;;12.83;58.11;102528.44;4956381;28;20023;-85
2023/05/02 08:38:44;;;;;;;9.27;2.55;;;;;;;12.68;56.97;102489.41;4973760;28;20027;-84
2023/05/02 08:41:17;;;;;;;8.73;2.30;;;;;;;12.82;55.55;102513.81;4973706;28;20074;-84
2023/05/02 08:43:44;;;;;;;9.20;2.30;;;;;;;13.00;54.95;102527.69;4973721;28;20030;-82
2023/05/02 08:46:12;;;;;;;7.28;2.33;;;;;;;13.15;55.60;102541.69;4955843;28;20114;-84
2023/05/02 08:48:39;;;;;;;8.73;2.50;;;;;;;13.04;54.51;102518.00;4973445;28;20018;-84
2023/05/02 08:51:10;;;;;;;9.82;2.42;;;;;;;13.07;55.18;102555.00;4956233;28;20034;-86
2023/05/02 08:53:37;;;;;;;12.27;3.10;;;;;;;13.04;55.95;102539.59;4973599;28;20489;-86
2023/05/02 08:56:03;;;;;;;7.53;2.15;;;;;;;13.14;54.21;102543.44;4973528;28;20026;-85
2023/05/02 08:58:31;;;;;;;7.85;2.28;;;;;;;13.19;55.12;102545.88;4973604;28;20086;-89
2023/05/02 09:01:01;;;;;;;6.13;2.08;;;;;;;13.11;54.24;102551.38;4973018;28;20050;-82
2023/05/02 09:03:32;;;;;;;7.93;2.00;;;;;;;12.92;54.48;102556.56;4973241;28;20027;-83
2023/05/02 09:06:06;;;;;;;8.88;2.13;;;;;;;12.69;56.34;102561.94;4973450;28;20027;-85
2023/05/02 09:08:33;;;;;;;9.95;2.63;;;;;;;12.74;56.19;102549.59;4973451;28;20031;-85
2023/05/02 09:10:59;;;;;;;14.85;3.63;;;;;;;12.95;56.17;102540.00;4973109;28;20090;-89
2023/05/02 09:13:28;;;;;;;8.35;2.42;;;;;;;13.14;55.59;102546.03;4973301;28;20058;-88
2023/05/02 09:16:03;;;;;;;9.20;2.40;;;;;;;13.34;54.23;102546.88;4973002;28;20106;-89
2023/05/02 09:18:34;;;;;;;7.57;2.40;;;;;;;13.58;54.42;102542.31;4975659;28;20057;-85
2023/05/02 09:21:05;;;;;;;7.35;2.42;;;;;;;13.79;51.93;102582.81;4975851;28;20033;-85
2023/05/02 09:23:33;;;;;;;7.03;2.25;;;;;;;13.84;53.52;102579.97;4977474;28;20026;-84
2023/05/02 09:25:59;;;;;;;6.72;2.30;;;;;;;13.80;51.75;102584.47;4977079;28;20082;-87
2023/05/02 09:28:45;;;;;;;8.95;2.60;;;;;;;13.53;52.75;102590.97;4976860;28;20486;-86
2023/05/02 09:31:35;;;;;;;8.95;2.50;;;;;;;13.53;54.83;102596.16;4959666;28;20094;-84
2023/05/02 09:34:16;;;;;;;9.93;3.28;;;;;;;13.48;53.81;102591.22;4959842;28;20038;-88
2023/05/02 09:36:49;;;;;;;9.43;2.85;;;;;;;13.19;53.30;102553.66;4974722;28;20057;-88
2023/05/02 09:39:18;;;;;;;9.63;3.10;;;;;;;13.39;55.01;102595.06;4977394;28;20038;-90
2023/05/02 09:42:09;;;;;;;9.55;3.05;;;;;;;12.79;55.68;102529.50;4976719;28;20381;-90
2023/05/02 09:47:27;;;;;;;9.93;3.17;;;;;;;11.20;57.33;102383.53;5144908;23;20109;-89
2023/05/02 09:49:52;;;;;;;10.10;3.10;;;;;;;11.98;55.12;102424.25;4976512;28;20027;-86
2023/05/02 09:52:20;;;;;;;8.75;3.10;;;;;;;12.51;54.50;102409.84;4976444;28;20027;-90
2023/05/02 09:58:24;;;;;;;8.95;2.72;;;;;;;13.61;52.87;102544.75;4943370;28;20050;-90
2023/05/02 10:00:59;;;;;;;6.90;2.60;;;;;;;12.77;52.82;102439.72;4958972;28;20033;-89
2023/05/02 10:03:31;;;;;;;10.40;2.58;;;;;;;12.83;52.18;102491.31;4976023;28;20336;-87
2023/05/02 10:05:57;;;;;;;5.88;2.22;;;;;;;13.32;52.13;102588.47;4958697;28;20104;-85
2023/05/02 10:08:27;;;;;;;9.88;2.60;;;;;;;13.56;51.67;102622.81;4976147;28;20051;-85
2023/05/02 10:10:57;;;;;;;7.95;2.40;;;;;;;13.65;52.10;102626.75;4976154;28;20113;-81
2023/05/02 10:13:26;;;;;;;10.82;2.95;;;;;;;13.62;52.05;102603.53;4974841;28;20602;-81
2023/05/02 10:16:00;;;;;;;7.85;2.13;;;;;;;13.27;51.49;102554.09;4959233;28;20031;-88
2023/05/02 10:18:49;;;;;;;8.00;2.42;;;;;;;13.46;49.36;102613.78;4976312;28;20533;-82
2023/05/02 10:21:28;;;;;;;5.07;2.20;;;;;;;13.25;50.86;102638.97;4976092;28;20030;-84
2023/05/02 10:23:54;;;;;;;7.18;2.55;;;;;;;13.30;52.12;102633.56;4975575;28;20030;-85
2023/05/02 10:26:26;;;;;;;8.25;2.80;;;;;;;12.93;51.48;102527.13;4975755;28;20022;-85
2023/05/02 10:28:55;;;;;;;9.25;2.80;;;;;;;12.97;49.71;102514.00;4974820;28;20471;-85
2023/05/02 10:31:23;;;;;;;5.40;2.45;;;;;;;13.33;50.67;102582.38;4975665;28;20493;-88
2023/05/02 10:33:54;;;;;;;6.57;2.50;;;;;;;13.19;50.31;102577.00;4975629;28;20030;-86
2023/05/02 10:36:21;;;;;;;9.40;2.83;;;;;;;13.28;50.47;102622.44;4976018;28;20206;-88
2023/05/02 10:38:48;;;;;;;6.63;2.50;;;;;;;12.92;50.40;102572.13;4958153;28;20038;-83
2023/05/02 10:41:21;;;;;;;8.88;2.70;;;;;;;13.32;51.24;102642.13;4975692;28;20062;-86
2023/05/02 10:43:48;;;;;;;6.30;2.30;;;;;;;13.48;49.74;102638.78;4975856;28;20419;-88
2023/05/02 10:46:35;;;;;;;7.50;2.70;;;;;;;13.75;49.66;102630.59;4975105;28;20050;-88
2023/05/02 10:49:09;;;;;;;7.05;2.40;;;;;;;13.63;48.89;102632.00;4957827;28;20046;-85
2023/05/02 10:51:36;;;;;;;11.52;2.45;;;;;;;13.73;48.41;102622.03;4975443;28;20031;-87
2023/05/02 10:54:21;;;;;;;4.95;2.33;;;;;;;14.04;48.41;102626.59;4958573;28;20035;-84
2023/05/02 10:57:07;;;;;;;9.05;2.90;;;;;;;14.05;48.81;102634.28;4975281;28;20035;-84
2023/05/02 10:59:38;;;;;;;5.00;2.55;;;;;;;14.18;48.10;102634.56;4975296;28;20027;-82
2023/05/02 11:02:05;;;;;;;8.80;2.67;;;;;;;14.02;48.17;102610.22;4975262;28;20113;-83
2023/05/02 11:05:02;;;;;;;8.50;2.83;;;;;;;14.41;46.86;102635.16;4975229;28;20034;-85
2023/05/02 11:07:37;;;;;;;9.75;2.70;;;;;;;14.51;48.99;102641.59;4975134;28;20081;-83
2023/05/02 11:10:19;;;;;;;7.32;2.50;;;;;;;14.35;47.02;102644.09;4975196;28;20019;-83
2023/05/02 11:12:46;;;;;;;;;;;;;;;14.42;48.05;102648.06;4975440;28;20030;-85
2023/05/02 11:15:11;;;;;;;7.13;2.55;;;;;;;13.99;48.69;102597.41;4975075;28;20022;-84
2023/05/02 11:18:07;;;;;;;7.80;2.55;;;;;;;14.39;47.14;102652.59;4957656;28;20122;-84
2023/05/02 11:20:34;;;;;;;7.63;3.05;;;;;;;13.74;45.81;102640.13;4957561;28;20027;-84
2023/05/02 11:23:21;;;;;;;7.25;2.55;;;;;;;13.58;47.75;102656.50;4957689;28;20134;-82
2023/05/02 11:25:54;;;;;;;7.68;2.80;;;;;;;13.81;47.06;102655.44;4974963;28;20027;-85
2023/05/02 11:28:42;;;;;;;7.38;2.28;;;;;;;14.14;45.95;102653.78;4975088;28;20034;-85
2023/05/02 11:31:28;;;;;;;6.53;2.40;;;;;;;14.06;45.16;102629.97;4974672;28;20522;-86
2023/05/02 11:33:58;;;;;;;7.45;2.38;;;;;;;13.75;47.26;102647.00;4974614;28;20038;-87